sensor_id;sensor_type;location;lat;lon;timestamp;P1;durP1;ratioP1;P2;durP2;ratioP2
79171;SDS011;68597;53.238;-1.418;2023-04-07T00:00:34;8.23;;;1.40;;
79171;SDS011;68597;53.238;-1.418;2023-04-07T00:02:59;5.18;;;2.75;;
79171;SDS011;68597;53.238;-1.418;2023-04-07T00:05:25;7.65;;;1.13;;
79171;SDS011;68597;53.238;-1.418;2023-04-07T00:07:50;6.68;;;1.30;;
79171;SDS011;68597;53.238;-1.418;2023-04-07T00:10:16;4.63;;;1.48;;
79171;SDS011;68597;53.238;-1.418;2023-04-07T00:12:41;7.32;;;1.20;;
79171;SDS011;68597;53.238;-1.418;2023-04-07T00:15:07;5.97;;;1.00;;
79171;SDS011;68597;53.238;-1.418;2023-04-07T00:17:34;9.07;;;1.75;;
79171;SDS011;68597;53.238;-1.418;2023-04-07T00:20:00;7.97;;;1.60;;
79171;SDS011;68597;53.238;-1.418;2023-04-07T00:22:25;2.78;;;1.05;;
79171;SDS011;68597;53.238;-1.418;2023-04-07T00:24:51;6.53;;;2.05;;
79171;SDS011;68597;53.238;-1.418;2023-04-07T00:27:16;4.80;;;1.25;;
79171;SDS011;68597;53.238;-1.418;2023-04-07T00:29:42;6.63;;;1.27;;
79171;SDS011;68597;53.238;-1.418;2023-04-07T00:32:08;8.45;;;1.30;;
79171;SDS011;68597;53.238;-1.418;2023-04-07T00:34:34;10.65;;;2.17;;
79171;SDS011;68597;53.238;-1.418;2023-04-07T00:37:00;9.07;;;2.30;;
79171;SDS011;68597;53.238;-1.418;2023-04-07T00:39:26;6.65;;;1.27;;
79171;SDS011;68597;53.238;-1.418;2023-04-07T00:41:51;6.10;;;0.98;;
79171;SDS011;68597;53.238;-1.418;2023-04-07T00:44:17;6.22;;;1.02;;
79171;SDS011;68597;53.238;-1.418;2023-04-07T00:46:43;5.80;;;1.70;;
79171;SDS011;68597;53.238;-1.418;2023-04-07T00:49:08;5.75;;;1.20;;
79171;SDS011;68597;53.238;-1.418;2023-04-07T00:51:35;4.45;;;1.50;;
79171;SDS011;68597;53.238;-1.418;2023-04-07T00:54:01;6.70;;;1.80;;
79171;SDS011;68597;53.238;-1.418;2023-04-07T00:56:26;10.70;;;1.60;;
79171;SDS011;68597;53.238;-1.418;2023-04-07T00:58:52;7.25;;;1.70;;
79171;SDS011;68597;53.238;-1.418;2023-04-07T01:01:18;10.63;;;1.90;;
79171;SDS011;68597;53.238;-1.418;2023-04-07T01:03:48;9.60;;;2.30;;
79171;SDS011;68597;53.238;-1.418;2023-04-07T01:06:18;7.40;;;1.45;;
79171;SDS011;68597;53.238;-1.418;2023-04-07T01:11:19;10.07;;;2.95;;
79171;SDS011;68597;53.238;-1.418;2023-04-07T01:13:50;9.30;;;1.95;;
79171;SDS011;68597;53.238;-1.418;2023-04-07T01:16:38;13.93;;;4.45;;
79171;SDS011;68597;53.238;-1.418;2023-04-07T01:19:12;12.45;;;2.63;;
79171;SDS011;68597;53.238;-1.418;2023-04-07T01:21:43;5.00;;;1.55;;
79171;SDS011;68597;53.238;-1.418;2023-04-07T01:24:38;5.07;;;1.45;;
79171;SDS011;68597;53.238;-1.418;2023-04-07T01:30:45;7.28;;;1.92;;
79171;SDS011;68597;53.238;-1.418;2023-04-07T01:33:12;12.50;;;2.70;;
79171;SDS011;68597;53.238;-1.418;2023-04-07T01:35:40;8.15;;;2.60;;
79171;SDS011;68597;53.238;-1.418;2023-04-07T01:38:07;9.85;;;2.65;;
79171;SDS011;68597;53.238;-1.418;2023-04-07T01:40:33;9.02;;;2.00;;
79171;SDS011;68597;53.238;-1.418;2023-04-07T01:43:00;5.95;;;1.77;;
79171;SDS011;68597;53.238;-1.418;2023-04-07T01:45:26;8.73;;;1.83;;
79171;SDS011;68597;53.238;-1.418;2023-04-07T01:47:55;5.80;;;1.73;;
79171;SDS011;68597;53.238;-1.418;2023-04-07T01:50:22;7.45;;;1.35;;
79171;SDS011;68597;53.238;-1.418;2023-04-07T01:52:48;8.25;;;2.55;;
79171;SDS011;68597;53.238;-1.418;2023-04-07T01:55:14;7.65;;;2.13;;
79171;SDS011;68597;53.238;-1.418;2023-04-07T02:00:18;5.85;;;1.85;;
79171;SDS011;68597;53.238;-1.418;2023-04-07T02:02:48;8.88;;;2.10;;
79171;SDS011;68597;53.238;-1.418;2023-04-07T02:05:19;8.30;;;2.35;;
79171;SDS011;68597;53.238;-1.418;2023-04-07T02:07:48;7.57;;;2.13;;
79171;SDS011;68597;53.238;-1.418;2023-04-07T02:10:19;7.13;;;1.70;;
79171;SDS011;68597;53.238;-1.418;2023-04-07T02:12:50;9.27;;;1.52;;
79171;SDS011;68597;53.238;-1.418;2023-04-07T02:15:18;8.82;;;1.90;;
79171;SDS011;68597;53.238;-1.418;2023-04-07T02:17:45;9.88;;;1.55;;
79171;SDS011;68597;53.238;-1.418;2023-04-07T02:20:12;7.55;;;1.52;;
79171;SDS011;68597;53.238;-1.418;2023-04-07T02:22:39;4.78;;;1.20;;
79171;SDS011;68597;53.238;-1.418;2023-04-07T02:25:19;5.55;;;1.33;;
79171;SDS011;68597;53.238;-1.418;2023-04-07T02:27:45;6.95;;;1.65;;
79171;SDS011;68597;53.238;-1.418;2023-04-07T02:30:11;7.07;;;1.10;;
79171;SDS011;68597;53.238;-1.418;2023-04-07T02:32:37;5.53;;;1.75;;
79171;SDS011;68597;53.238;-1.418;2023-04-07T02:35:02;5.30;;;1.40;;
79171;SDS011;68597;53.238;-1.418;2023-04-07T02:37:29;6.55;;;1.10;;
79171;SDS011;68597;53.238;-1.418;2023-04-07T02:39:55;6.30;;;1.25;;
79171;SDS011;68597;53.238;-1.418;2023-04-07T02:42:21;5.75;;;1.27;;
79171;SDS011;68597;53.238;-1.418;2023-04-07T02:44:47;4.00;;;1.13;;
79171;SDS011;68597;53.238;-1.418;2023-04-07T02:47:13;4.35;;;1.90;;
79171;SDS011;68597;53.238;-1.418;2023-04-07T02:49:38;4.18;;;1.40;;
79171;SDS011;68597;53.238;-1.418;2023-04-07T02:52:04;6.30;;;1.20;;
79171;SDS011;68597;53.238;-1.418;2023-04-07T02:54:30;6.70;;;1.48;;
79171;SDS011;68597;53.238;-1.418;2023-04-07T02:56:57;6.78;;;1.30;;
79171;SDS011;68597;53.238;-1.418;2023-04-07T02:59:23;3.92;;;1.13;;
79171;SDS011;68597;53.238;-1.418;2023-04-07T03:01:49;9.32;;;1.50;;
79171;SDS011;68597;53.238;-1.418;2023-04-07T03:04:16;6.25;;;1.75;;
79171;SDS011;68597;53.238;-1.418;2023-04-07T03:06:42;5.45;;;1.38;;
79171;SDS011;68597;53.238;-1.418;2023-04-07T03:09:13;11.23;;;1.65;;
79171;SDS011;68597;53.238;-1.418;2023-04-07T03:11:39;4.03;;;1.48;;
79171;SDS011;68597;53.238;-1.418;2023-04-07T03:14:06;5.93;;;1.38;;
79171;SDS011;68597;53.238;-1.418;2023-04-07T03:16:36;11.25;;;1.88;;
79171;SDS011;68597;53.238;-1.418;2023-04-07T03:19:06;6.30;;;1.50;;
79171;SDS011;68597;53.238;-1.418;2023-04-07T03:21:35;9.15;;;2.15;;
79171;SDS011;68597;53.238;-1.418;2023-04-07T03:24:02;6.00;;;0.80;;
79171;SDS011;68597;53.238;-1.418;2023-04-07T03:26:27;6.95;;;1.30;;
79171;SDS011;68597;53.238;-1.418;2023-04-07T03:28:54;4.45;;;1.05;;
79171;SDS011;68597;53.238;-1.418;2023-04-07T03:31:21;6.20;;;1.50;;
79171;SDS011;68597;53.238;-1.418;2023-04-07T03:33:49;11.40;;;1.40;;
79171;SDS011;68597;53.238;-1.418;2023-04-07T03:36:15;6.22;;;1.13;;
79171;SDS011;68597;53.238;-1.418;2023-04-07T03:38:41;6.50;;;1.45;;
79171;SDS011;68597;53.238;-1.418;2023-04-07T03:41:06;5.55;;;1.00;;
79171;SDS011;68597;53.238;-1.418;2023-04-07T03:43:32;6.82;;;1.10;;
79171;SDS011;68597;53.238;-1.418;2023-04-07T03:45:59;3.92;;;0.90;;
79171;SDS011;68597;53.238;-1.418;2023-04-07T03:48:26;4.70;;;1.13;;
79171;SDS011;68597;53.238;-1.418;2023-04-07T03:51:00;2.83;;;0.90;;
79171;SDS011;68597;53.238;-1.418;2023-04-07T03:53:25;5.97;;;1.30;;
79171;SDS011;68597;53.238;-1.418;2023-04-07T03:55:51;6.50;;;1.17;;
79171;SDS011;68597;53.238;-1.418;2023-04-07T03:58:26;8.05;;;2.05;;
79171;SDS011;68597;53.238;-1.418;2023-04-07T04:00:52;5.45;;;1.80;;
79171;SDS011;68597;53.238;-1.418;2023-04-07T04:03:17;6.45;;;1.15;;
79171;SDS011;68597;53.238;-1.418;2023-04-07T04:05:55;7.35;;;1.42;;
79171;SDS011;68597;53.238;-1.418;2023-04-07T04:08:26;6.65;;;1.20;;
79171;SDS011;68597;53.238;-1.418;2023-04-07T04:10:53;3.10;;;1.00;;
79171;SDS011;68597;53.238;-1.418;2023-04-07T04:13:19;3.90;;;0.80;;
79171;SDS011;68597;53.238;-1.418;2023-04-07T04:15:45;5.90;;;1.25;;
79171;SDS011;68597;53.238;-1.418;2023-04-07T04:18:13;5.65;;;1.25;;
79171;SDS011;68597;53.238;-1.418;2023-04-07T04:20:39;6.68;;;1.30;;
79171;SDS011;68597;53.238;-1.418;2023-04-07T04:23:07;5.13;;;1.17;;
79171;SDS011;68597;53.238;-1.418;2023-04-07T04:25:33;3.78;;;0.80;;
79171;SDS011;68597;53.238;-1.418;2023-04-07T04:28:02;5.10;;;1.20;;
79171;SDS011;68597;53.238;-1.418;2023-04-07T04:30:27;4.20;;;1.25;;
79171;SDS011;68597;53.238;-1.418;2023-04-07T04:32:57;3.97;;;1.10;;
79171;SDS011;68597;53.238;-1.418;2023-04-07T04:35:31;5.78;;;1.30;;
79171;SDS011;68597;53.238;-1.418;2023-04-07T04:38:10;5.00;;;1.38;;
79171;SDS011;68597;53.238;-1.418;2023-04-07T04:40:41;4.53;;;0.80;;
79171;SDS011;68597;53.238;-1.418;2023-04-07T04:43:08;5.45;;;1.00;;
79171;SDS011;68597;53.238;-1.418;2023-04-07T04:45:36;5.22;;;1.30;;
79171;SDS011;68597;53.238;-1.418;2023-04-07T04:48:02;7.45;;;1.38;;
79171;SDS011;68597;53.238;-1.418;2023-04-07T04:50:28;5.13;;;1.02;;
79171;SDS011;68597;53.238;-1.418;2023-04-07T04:52:54;8.73;;;1.50;;
79171;SDS011;68597;53.238;-1.418;2023-04-07T04:55:23;4.82;;;1.17;;
79171;SDS011;68597;53.238;-1.418;2023-04-07T04:57:51;5.70;;;1.30;;
79171;SDS011;68597;53.238;-1.418;2023-04-07T05:00:22;8.00;;;1.38;;
79171;SDS011;68597;53.238;-1.418;2023-04-07T05:02:54;5.20;;;1.15;;
79171;SDS011;68597;53.238;-1.418;2023-04-07T05:05:20;3.75;;;1.02;;
79171;SDS011;68597;53.238;-1.418;2023-04-07T05:07:47;4.78;;;1.23;;
79171;SDS011;68597;53.238;-1.418;2023-04-07T05:10:14;4.15;;;1.08;;
79171;SDS011;68597;53.238;-1.418;2023-04-07T05:12:47;5.30;;;1.30;;
79171;SDS011;68597;53.238;-1.418;2023-04-07T05:15:12;6.05;;;1.27;;
79171;SDS011;68597;53.238;-1.418;2023-04-07T05:17:39;3.03;;;1.17;;
79171;SDS011;68597;53.238;-1.418;2023-04-07T05:20:07;4.60;;;1.20;;
79171;SDS011;68597;53.238;-1.418;2023-04-07T05:22:36;7.28;;;1.38;;
79171;SDS011;68597;53.238;-1.418;2023-04-07T05:25:04;5.15;;;1.20;;
79171;SDS011;68597;53.238;-1.418;2023-04-07T05:27:30;3.78;;;1.23;;
79171;SDS011;68597;53.238;-1.418;2023-04-07T05:30:03;4.75;;;1.05;;
79171;SDS011;68597;53.238;-1.418;2023-04-07T05:32:32;5.53;;;1.58;;
79171;SDS011;68597;53.238;-1.418;2023-04-07T05:37:32;5.93;;;1.45;;
79171;SDS011;68597;53.238;-1.418;2023-04-07T05:40:02;7.90;;;1.40;;
79171;SDS011;68597;53.238;-1.418;2023-04-07T05:42:28;5.53;;;1.48;;
79171;SDS011;68597;53.238;-1.418;2023-04-07T05:44:55;4.03;;;1.67;;
79171;SDS011;68597;53.238;-1.418;2023-04-07T05:47:24;7.97;;;1.88;;
79171;SDS011;68597;53.238;-1.418;2023-04-07T05:49:50;3.92;;;1.67;;
79171;SDS011;68597;53.238;-1.418;2023-04-07T05:52:15;7.10;;;1.88;;
79171;SDS011;68597;53.238;-1.418;2023-04-07T05:54:46;5.70;;;1.52;;
79171;SDS011;68597;53.238;-1.418;2023-04-07T05:57:13;4.82;;;1.70;;
79171;SDS011;68597;53.238;-1.418;2023-04-07T05:59:43;5.50;;;1.27;;
79171;SDS011;68597;53.238;-1.418;2023-04-07T06:02:09;6.28;;;1.27;;
79171;SDS011;68597;53.238;-1.418;2023-04-07T06:04:36;4.25;;;1.50;;
79171;SDS011;68597;53.238;-1.418;2023-04-07T06:07:04;6.05;;;1.48;;
79171;SDS011;68597;53.238;-1.418;2023-04-07T06:09:29;5.53;;;1.95;;
79171;SDS011;68597;53.238;-1.418;2023-04-07T06:11:55;5.95;;;1.27;;
79171;SDS011;68597;53.238;-1.418;2023-04-07T06:14:21;6.88;;;1.70;;
79171;SDS011;68597;53.238;-1.418;2023-04-07T06:16:48;4.80;;;1.23;;
79171;SDS011;68597;53.238;-1.418;2023-04-07T06:19:13;5.95;;;1.02;;
79171;SDS011;68597;53.238;-1.418;2023-04-07T06:21:40;6.53;;;1.63;;
79171;SDS011;68597;53.238;-1.418;2023-04-07T06:24:06;4.05;;;1.25;;
79171;SDS011;68597;53.238;-1.418;2023-04-07T06:26:33;6.35;;;1.40;;
79171;SDS011;68597;53.238;-1.418;2023-04-07T06:28:59;7.30;;;1.70;;
79171;SDS011;68597;53.238;-1.418;2023-04-07T06:31:25;11.15;;;2.78;;
79171;SDS011;68597;53.238;-1.418;2023-04-07T06:33:51;7.80;;;1.52;;
79171;SDS011;68597;53.238;-1.418;2023-04-07T06:36:16;4.22;;;1.52;;
79171;SDS011;68597;53.238;-1.418;2023-04-07T06:38:43;6.82;;;1.80;;
79171;SDS011;68597;53.238;-1.418;2023-04-07T06:41:09;10.10;;;3.00;;
79171;SDS011;68597;53.238;-1.418;2023-04-07T06:43:34;5.75;;;2.15;;
79171;SDS011;68597;53.238;-1.418;2023-04-07T06:46:02;4.45;;;1.48;;
79171;SDS011;68597;53.238;-1.418;2023-04-07T06:48:27;5.03;;;1.30;;
79171;SDS011;68597;53.238;-1.418;2023-04-07T06:50:53;4.38;;;1.27;;
79171;SDS011;68597;53.238;-1.418;2023-04-07T06:53:18;5.03;;;1.40;;
79171;SDS011;68597;53.238;-1.418;2023-04-07T06:55:45;7.18;;;1.75;;
79171;SDS011;68597;53.238;-1.418;2023-04-07T06:58:11;4.22;;;1.23;;
79171;SDS011;68597;53.238;-1.418;2023-04-07T07:00:36;4.38;;;1.15;;
79171;SDS011;68597;53.238;-1.418;2023-04-07T07:03:02;6.00;;;1.40;;
79171;SDS011;68597;53.238;-1.418;2023-04-07T07:05:28;4.32;;;1.40;;
79171;SDS011;68597;53.238;-1.418;2023-04-07T07:07:53;5.03;;;1.15;;
79171;SDS011;68597;53.238;-1.418;2023-04-07T07:10:19;3.38;;;0.93;;
79171;SDS011;68597;53.238;-1.418;2023-04-07T07:12:46;5.65;;;1.17;;
79171;SDS011;68597;53.238;-1.418;2023-04-07T07:15:12;5.13;;;1.38;;
79171;SDS011;68597;53.238;-1.418;2023-04-07T07:17:37;4.00;;;1.38;;
79171;SDS011;68597;53.238;-1.418;2023-04-07T07:20:03;3.17;;;1.17;;
79171;SDS011;68597;53.238;-1.418;2023-04-07T07:22:29;4.28;;;1.20;;
79171;SDS011;68597;53.238;-1.418;2023-04-07T07:24:55;5.85;;;1.17;;
79171;SDS011;68597;53.238;-1.418;2023-04-07T07:27:20;2.75;;;1.10;;
79171;SDS011;68597;53.238;-1.418;2023-04-07T07:29:47;3.08;;;1.40;;
79171;SDS011;68597;53.238;-1.418;2023-04-07T07:32:13;5.20;;;1.00;;
79171;SDS011;68597;53.238;-1.418;2023-04-07T07:34:38;4.80;;;1.25;;
79171;SDS011;68597;53.238;-1.418;2023-04-07T07:37:04;3.42;;;1.25;;
79171;SDS011;68597;53.238;-1.418;2023-04-07T07:39:30;4.78;;;1.63;;
79171;SDS011;68597;53.238;-1.418;2023-04-07T07:41:55;7.85;;;1.85;;
79171;SDS011;68597;53.238;-1.418;2023-04-07T07:44:21;4.82;;;1.02;;
79171;SDS011;68597;53.238;-1.418;2023-04-07T07:46:48;3.30;;;1.08;;
79171;SDS011;68597;53.238;-1.418;2023-04-07T07:49:13;3.50;;;1.02;;
79171;SDS011;68597;53.238;-1.418;2023-04-07T07:51:39;2.70;;;0.90;;
79171;SDS011;68597;53.238;-1.418;2023-04-07T07:54:04;4.68;;;1.15;;
79171;SDS011;68597;53.238;-1.418;2023-04-07T07:56:30;7.22;;;1.25;;
79171;SDS011;68597;53.238;-1.418;2023-04-07T07:58:55;2.85;;;0.95;;
79171;SDS011;68597;53.238;-1.418;2023-04-07T08:01:21;7.55;;;1.20;;
79171;SDS011;68597;53.238;-1.418;2023-04-07T08:03:50;5.97;;;1.55;;
79171;SDS011;68597;53.238;-1.418;2023-04-07T08:06:15;4.95;;;0.80;;
79171;SDS011;68597;53.238;-1.418;2023-04-07T08:08:41;3.67;;;1.15;;
79171;SDS011;68597;53.238;-1.418;2023-04-07T08:11:06;6.00;;;1.35;;
79171;SDS011;68597;53.238;-1.418;2023-04-07T08:13:32;2.47;;;1.50;;
79171;SDS011;68597;53.238;-1.418;2023-04-07T08:15:57;4.68;;;0.73;;
79171;SDS011;68597;53.238;-1.418;2023-04-07T08:18:23;0.65;;;0.43;;
79171;SDS011;68597;53.238;-1.418;2023-04-07T08:20:49;3.42;;;0.70;;
79171;SDS011;68597;53.238;-1.418;2023-04-07T08:23:15;1.92;;;0.50;;
79171;SDS011;68597;53.238;-1.418;2023-04-07T08:25:41;2.85;;;0.70;;
79171;SDS011;68597;53.238;-1.418;2023-04-07T08:28:06;2.67;;;0.77;;
79171;SDS011;68597;53.238;-1.418;2023-04-07T08:30:32;1.95;;;0.52;;
79171;SDS011;68597;53.238;-1.418;2023-04-07T08:32:58;3.10;;;1.08;;
79171;SDS011;68597;53.238;-1.418;2023-04-07T08:35:23;2.72;;;0.88;;
79171;SDS011;68597;53.238;-1.418;2023-04-07T08:37:50;4.15;;;1.15;;
79171;SDS011;68597;53.238;-1.418;2023-04-07T08:40:16;5.45;;;1.27;;
79171;SDS011;68597;53.238;-1.418;2023-04-07T08:42:42;1.70;;;0.60;;
79171;SDS011;68597;53.238;-1.418;2023-04-07T08:45:11;2.15;;;0.70;;
79171;SDS011;68597;53.238;-1.418;2023-04-07T08:47:37;3.40;;;0.90;;
79171;SDS011;68597;53.238;-1.418;2023-04-07T08:50:05;1.92;;;0.60;;
79171;SDS011;68597;53.238;-1.418;2023-04-07T08:52:32;3.15;;;0.50;;
79171;SDS011;68597;53.238;-1.418;2023-04-07T08:55:02;2.33;;;1.00;;
79171;SDS011;68597;53.238;-1.418;2023-04-07T08:57:29;3.65;;;0.80;;
79171;SDS011;68597;53.238;-1.418;2023-04-07T08:59:55;2.22;;;0.40;;
79171;SDS011;68597;53.238;-1.418;2023-04-07T09:02:22;1.40;;;0.77;;
79171;SDS011;68597;53.238;-1.418;2023-04-07T09:04:48;2.65;;;0.70;;
79171;SDS011;68597;53.238;-1.418;2023-04-07T09:07:13;2.53;;;1.00;;
79171;SDS011;68597;53.238;-1.418;2023-04-07T09:09:39;1.85;;;0.80;;
79171;SDS011;68597;53.238;-1.418;2023-04-07T09:12:06;2.85;;;0.80;;
79171;SDS011;68597;53.238;-1.418;2023-04-07T09:14:31;3.28;;;0.80;;
79171;SDS011;68597;53.238;-1.418;2023-04-07T09:16:57;2.67;;;0.52;;
79171;SDS011;68597;53.238;-1.418;2023-04-07T09:19:23;2.90;;;0.95;;
79171;SDS011;68597;53.238;-1.418;2023-04-07T09:21:51;6.57;;;1.00;;
79171;SDS011;68597;53.238;-1.418;2023-04-07T09:24:20;3.85;;;1.13;;
79171;SDS011;68597;53.238;-1.418;2023-04-07T09:26:47;4.75;;;0.90;;
79171;SDS011;68597;53.238;-1.418;2023-04-07T09:29:15;3.47;;;1.00;;
79171;SDS011;68597;53.238;-1.418;2023-04-07T09:31:44;2.05;;;0.80;;
79171;SDS011;68597;53.238;-1.418;2023-04-07T09:34:15;2.00;;;0.90;;
79171;SDS011;68597;53.238;-1.418;2023-04-07T09:36:48;3.42;;;1.27;;
79171;SDS011;68597;53.238;-1.418;2023-04-07T09:39:14;2.13;;;0.77;;
79171;SDS011;68597;53.238;-1.418;2023-04-07T09:41:40;3.78;;;0.90;;
79171;SDS011;68597;53.238;-1.418;2023-04-07T09:44:06;2.10;;;0.82;;
79171;SDS011;68597;53.238;-1.418;2023-04-07T09:46:33;2.22;;;0.98;;
79171;SDS011;68597;53.238;-1.418;2023-04-07T09:49:00;1.63;;;0.88;;
79171;SDS011;68597;53.238;-1.418;2023-04-07T09:51:26;3.65;;;1.08;;
79171;SDS011;68597;53.238;-1.418;2023-04-07T09:53:51;2.67;;;1.00;;
79171;SDS011;68597;53.238;-1.418;2023-04-07T09:56:18;1.40;;;0.70;;
79171;SDS011;68597;53.238;-1.418;2023-04-07T09:58:46;3.10;;;0.60;;
79171;SDS011;68597;53.238;-1.418;2023-04-07T10:01:15;2.55;;;0.77;;
79171;SDS011;68597;53.238;-1.418;2023-04-07T10:03:42;2.50;;;0.80;;
79171;SDS011;68597;53.238;-1.418;2023-04-07T10:06:11;2.28;;;1.02;;
79171;SDS011;68597;53.238;-1.418;2023-04-07T10:08:38;3.28;;;1.00;;
79171;SDS011;68597;53.238;-1.418;2023-04-07T10:11:06;2.38;;;1.40;;
79171;SDS011;68597;53.238;-1.418;2023-04-07T10:13:32;4.07;;;0.85;;
79171;SDS011;68597;53.238;-1.418;2023-04-07T10:15:59;6.70;;;0.95;;
79171;SDS011;68597;53.238;-1.418;2023-04-07T10:18:28;2.45;;;0.88;;
79171;SDS011;68597;53.238;-1.418;2023-04-07T10:20:56;4.95;;;1.30;;
79171;SDS011;68597;53.238;-1.418;2023-04-07T10:25:53;3.90;;;0.85;;
79171;SDS011;68597;53.238;-1.418;2023-04-07T10:28:21;6.60;;;1.92;;
79171;SDS011;68597;53.238;-1.418;2023-04-07T10:30:48;4.35;;;1.10;;
79171;SDS011;68597;53.238;-1.418;2023-04-07T10:33:14;3.20;;;0.68;;
79171;SDS011;68597;53.238;-1.418;2023-04-07T10:38:37;5.35;;;0.80;;
79171;SDS011;68597;53.238;-1.418;2023-04-07T10:43:58;1.75;;;1.05;;
79171;SDS011;68597;53.238;-1.418;2023-04-07T10:46:25;2.25;;;0.70;;
79171;SDS011;68597;53.238;-1.418;2023-04-07T10:49:27;2.58;;;1.10;;
79171;SDS011;68597;53.238;-1.418;2023-04-07T11:00:37;1.65;;;0.90;;
79171;SDS011;68597;53.238;-1.418;2023-04-07T11:03:08;3.15;;;1.00;;
79171;SDS011;68597;53.238;-1.418;2023-04-07T11:05:35;3.17;;;0.70;;
79171;SDS011;68597;53.238;-1.418;2023-04-07T11:08:02;2.55;;;0.82;;
79171;SDS011;68597;53.238;-1.418;2023-04-07T11:10:28;1.80;;;0.88;;
79171;SDS011;68597;53.238;-1.418;2023-04-07T11:12:57;1.13;;;0.55;;
79171;SDS011;68597;53.238;-1.418;2023-04-07T11:15:33;3.75;;;1.08;;
79171;SDS011;68597;53.238;-1.418;2023-04-07T11:18:10;5.65;;;1.08;;
79171;SDS011;68597;53.238;-1.418;2023-04-07T11:20:47;1.42;;;0.77;;
79171;SDS011;68597;53.238;-1.418;2023-04-07T11:23:18;2.33;;;0.77;;
79171;SDS011;68597;53.238;-1.418;2023-04-07T11:25:45;2.05;;;0.60;;
79171;SDS011;68597;53.238;-1.418;2023-04-07T11:28:12;2.20;;;0.80;;
79171;SDS011;68597;53.238;-1.418;2023-04-07T11:30:38;4.78;;;0.80;;
79171;SDS011;68597;53.238;-1.418;2023-04-07T11:33:13;1.77;;;0.70;;
79171;SDS011;68597;53.238;-1.418;2023-04-07T11:35:45;2.05;;;1.05;;
79171;SDS011;68597;53.238;-1.418;2023-04-07T11:38:12;4.07;;;0.80;;
79171;SDS011;68597;53.238;-1.418;2023-04-07T11:40:39;1.35;;;0.60;;
79171;SDS011;68597;53.238;-1.418;2023-04-07T11:43:14;4.18;;;1.40;;
79171;SDS011;68597;53.238;-1.418;2023-04-07T11:45:40;0.77;;;0.57;;
79171;SDS011;68597;53.238;-1.418;2023-04-07T11:50:53;2.58;;;0.93;;
79171;SDS011;68597;53.238;-1.418;2023-04-07T11:53:23;4.70;;;1.30;;
79171;SDS011;68597;53.238;-1.418;2023-04-07T11:55:59;4.72;;;1.00;;
79171;SDS011;68597;53.238;-1.418;2023-04-07T11:58:28;2.33;;;0.68;;
79171;SDS011;68597;53.238;-1.418;2023-04-07T12:00:54;1.08;;;0.65;;
79171;SDS011;68597;53.238;-1.418;2023-04-07T12:03:20;3.17;;;0.70;;
79171;SDS011;68597;53.238;-1.418;2023-04-07T12:05:46;2.33;;;0.57;;
79171;SDS011;68597;53.238;-1.418;2023-04-07T12:08:12;1.42;;;0.60;;
79171;SDS011;68597;53.238;-1.418;2023-04-07T12:10:38;1.35;;;0.63;;
79171;SDS011;68597;53.238;-1.418;2023-04-07T12:13:05;1.58;;;0.70;;
79171;SDS011;68597;53.238;-1.418;2023-04-07T12:15:32;2.58;;;0.60;;
79171;SDS011;68597;53.238;-1.418;2023-04-07T12:17:57;3.42;;;0.75;;
79171;SDS011;68597;53.238;-1.418;2023-04-07T12:20:23;1.08;;;0.73;;
79171;SDS011;68597;53.238;-1.418;2023-04-07T12:22:48;2.67;;;0.80;;
79171;SDS011;68597;53.238;-1.418;2023-04-07T12:25:14;4.03;;;0.75;;
79171;SDS011;68597;53.238;-1.418;2023-04-07T12:27:39;1.42;;;0.60;;
79171;SDS011;68597;53.238;-1.418;2023-04-07T12:30:08;3.83;;;1.13;;
79171;SDS011;68597;53.238;-1.418;2023-04-07T12:32:34;3.63;;;0.82;;
79171;SDS011;68597;53.238;-1.418;2023-04-07T12:34:59;2.85;;;0.30;;
79171;SDS011;68597;53.238;-1.418;2023-04-07T12:37:25;1.30;;;0.82;;
79171;SDS011;68597;53.238;-1.418;2023-04-07T12:39:50;3.25;;;0.98;;
79171;SDS011;68597;53.238;-1.418;2023-04-07T12:42:16;2.58;;;1.00;;
79171;SDS011;68597;53.238;-1.418;2023-04-07T12:44:41;1.17;;;0.52;;
79171;SDS011;68597;53.238;-1.418;2023-04-07T12:47:08;2.33;;;0.60;;
79171;SDS011;68597;53.238;-1.418;2023-04-07T12:49:34;2.25;;;1.15;;
79171;SDS011;68597;53.238;-1.418;2023-04-07T12:51:59;2.83;;;0.82;;
79171;SDS011;68597;53.238;-1.418;2023-04-07T12:54:25;1.35;;;0.43;;
79171;SDS011;68597;53.238;-1.418;2023-04-07T12:56:51;1.88;;;0.60;;
79171;SDS011;68597;53.238;-1.418;2023-04-07T12:59:17;2.78;;;0.90;;
79171;SDS011;68597;53.238;-1.418;2023-04-07T13:01:43;4.13;;;1.85;;
79171;SDS011;68597;53.238;-1.418;2023-04-07T13:04:10;2.97;;;1.15;;
79171;SDS011;68597;53.238;-1.418;2023-04-07T13:06:35;3.22;;;0.60;;
79171;SDS011;68597;53.238;-1.418;2023-04-07T13:09:01;5.10;;;1.05;;
79171;SDS011;68597;53.238;-1.418;2023-04-07T13:11:26;0.93;;;0.68;;
79171;SDS011;68597;53.238;-1.418;2023-04-07T13:13:52;4.13;;;1.00;;
79171;SDS011;68597;53.238;-1.418;2023-04-07T13:16:18;2.53;;;0.98;;
79171;SDS011;68597;53.238;-1.418;2023-04-07T13:18:43;1.33;;;0.68;;
79171;SDS011;68597;53.238;-1.418;2023-04-07T13:21:10;1.63;;;0.70;;
79171;SDS011;68597;53.238;-1.418;2023-04-07T13:23:36;3.63;;;0.70;;
79171;SDS011;68597;53.238;-1.418;2023-04-07T13:26:02;3.35;;;1.13;;
79171;SDS011;68597;53.238;-1.418;2023-04-07T13:28:28;1.80;;;1.05;;
79171;SDS011;68597;53.238;-1.418;2023-04-07T13:30:54;4.28;;;0.95;;
79171;SDS011;68597;53.238;-1.418;2023-04-07T13:33:19;2.80;;;1.15;;
79171;SDS011;68597;53.238;-1.418;2023-04-07T13:35:45;5.88;;;1.27;;
79171;SDS011;68597;53.238;-1.418;2023-04-07T13:38:12;1.83;;;0.85;;
79171;SDS011;68597;53.238;-1.418;2023-04-07T13:40:38;2.55;;;0.90;;
79171;SDS011;68597;53.238;-1.418;2023-04-07T13:43:03;3.28;;;1.20;;
79171;SDS011;68597;53.238;-1.418;2023-04-07T13:45:29;2.20;;;0.93;;
79171;SDS011;68597;53.238;-1.418;2023-04-07T13:47:54;1.90;;;0.77;;
79171;SDS011;68597;53.238;-1.418;2023-04-07T13:50:20;2.17;;;1.27;;
79171;SDS011;68597;53.238;-1.418;2023-04-07T13:52:45;2.28;;;0.80;;
79171;SDS011;68597;53.238;-1.418;2023-04-07T13:55:12;2.85;;;0.85;;
79171;SDS011;68597;53.238;-1.418;2023-04-07T13:57:38;4.90;;;0.95;;
79171;SDS011;68597;53.238;-1.418;2023-04-07T14:00:04;3.08;;;0.85;;
79171;SDS011;68597;53.238;-1.418;2023-04-07T14:02:34;4.10;;;0.90;;
79171;SDS011;68597;53.238;-1.418;2023-04-07T14:04:59;3.38;;;1.10;;
79171;SDS011;68597;53.238;-1.418;2023-04-07T14:07:25;2.97;;;1.00;;
79171;SDS011;68597;53.238;-1.418;2023-04-07T14:09:50;1.60;;;0.93;;
79171;SDS011;68597;53.238;-1.418;2023-04-07T14:12:17;3.83;;;1.40;;
79171;SDS011;68597;53.238;-1.418;2023-04-07T14:14:43;2.70;;;1.00;;
79171;SDS011;68597;53.238;-1.418;2023-04-07T14:17:08;1.83;;;0.52;;
79171;SDS011;68597;53.238;-1.418;2023-04-07T14:19:34;2.33;;;1.00;;
79171;SDS011;68597;53.238;-1.418;2023-04-07T14:21:59;1.83;;;0.90;;
79171;SDS011;68597;53.238;-1.418;2023-04-07T14:24:25;3.83;;;1.38;;
79171;SDS011;68597;53.238;-1.418;2023-04-07T14:26:50;3.35;;;0.82;;
79171;SDS011;68597;53.238;-1.418;2023-04-07T14:29:17;3.33;;;1.10;;
79171;SDS011;68597;53.238;-1.418;2023-04-07T14:31:46;3.10;;;1.45;;
79171;SDS011;68597;53.238;-1.418;2023-04-07T14:34:11;3.13;;;1.00;;
79171;SDS011;68597;53.238;-1.418;2023-04-07T14:36:37;3.85;;;1.00;;
79171;SDS011;68597;53.238;-1.418;2023-04-07T14:39:02;2.13;;;0.93;;
79171;SDS011;68597;53.238;-1.418;2023-04-07T14:41:28;5.97;;;1.33;;
79171;SDS011;68597;53.238;-1.418;2023-04-07T14:43:54;3.22;;;1.17;;
79171;SDS011;68597;53.238;-1.418;2023-04-07T14:46:20;1.10;;;0.68;;
79171;SDS011;68597;53.238;-1.418;2023-04-07T14:48:46;1.80;;;0.98;;
79171;SDS011;68597;53.238;-1.418;2023-04-07T14:51:12;2.75;;;1.08;;
79171;SDS011;68597;53.238;-1.418;2023-04-07T14:53:37;2.83;;;1.08;;
79171;SDS011;68597;53.238;-1.418;2023-04-07T14:56:04;3.45;;;0.93;;
79171;SDS011;68597;53.238;-1.418;2023-04-07T14:58:30;3.97;;;1.00;;
79171;SDS011;68597;53.238;-1.418;2023-04-07T15:00:56;2.00;;;0.90;;
79171;SDS011;68597;53.238;-1.418;2023-04-07T15:03:24;3.38;;;1.10;;